sensor_id;sensor_type;location;lat;lon;timestamp;P1;durP1;ratioP1;P2;durP2;ratioP2
63906;SDS011;50075;49.484;11.238;2022-08-05T00:00:42;32.30;;;7.13;;
63906;SDS011;50075;49.484;11.238;2022-08-05T00:03:07;32.63;;;7.53;;
63906;SDS011;50075;49.484;11.238;2022-08-05T00:05:33;31.65;;;7.05;;
63906;SDS011;50075;49.484;11.238;2022-08-05T00:07:58;32.10;;;7.30;;
63906;SDS011;50075;49.484;11.238;2022-08-05T00:10:23;31.63;;;7.32;;
63906;SDS011;50075;49.484;11.238;2022-08-05T00:12:49;32.63;;;6.90;;
63906;SDS011;50075;49.484;11.238;2022-08-05T00:15:14;31.58;;;7.47;;
63906;SDS011;50075;49.484;11.238;2022-08-05T00:17:39;33.22;;;7.00;;
63906;SDS011;50075;49.484;11.238;2022-08-05T00:20:05;33.65;;;6.93;;
63906;SDS011;50075;49.484;11.238;2022-08-05T00:22:30;42.15;;;7.97;;
63906;SDS011;50075;49.484;11.238;2022-08-05T00:24:56;31.80;;;6.68;;
63906;SDS011;50075;49.484;11.238;2022-08-05T00:27:21;41.35;;;7.85;;
63906;SDS011;50075;49.484;11.238;2022-08-05T00:29:47;34.20;;;7.50;;
63906;SDS011;50075;49.484;11.238;2022-08-05T00:32:12;30.45;;;6.90;;
63906;SDS011;50075;49.484;11.238;2022-08-05T00:34:46;40.47;;;7.80;;
63906;SDS011;50075;49.484;11.238;2022-08-05T00:37:12;30.83;;;7.05;;
63906;SDS011;50075;49.484;11.238;2022-08-05T00:39:37;44.75;;;8.45;;
63906;SDS011;50075;49.484;11.238;2022-08-05T00:42:04;37.33;;;8.00;;
63906;SDS011;50075;49.484;11.238;2022-08-05T00:44:29;34.72;;;7.97;;
63906;SDS011;50075;49.484;11.238;2022-08-05T00:46:55;32.05;;;7.18;;
63906;SDS011;50075;49.484;11.238;2022-08-05T00:49:20;36.15;;;7.22;;
63906;SDS011;50075;49.484;11.238;2022-08-05T00:51:45;35.55;;;7.45;;
63906;SDS011;50075;49.484;11.238;2022-08-05T00:54:11;26.83;;;6.80;;
63906;SDS011;50075;49.484;11.238;2022-08-05T00:56:37;33.28;;;7.70;;
63906;SDS011;50075;49.484;11.238;2022-08-05T00:59:03;30.20;;;7.30;;
63906;SDS011;50075;49.484;11.238;2022-08-05T01:01:29;29.75;;;7.03;;
63906;SDS011;50075;49.484;11.238;2022-08-05T01:03:54;27.88;;;7.10;;
63906;SDS011;50075;49.484;11.238;2022-08-05T01:06:20;30.38;;;6.45;;
63906;SDS011;50075;49.484;11.238;2022-08-05T01:08:45;36.75;;;7.60;;
63906;SDS011;50075;49.484;11.238;2022-08-05T01:11:26;35.50;;;7.50;;
63906;SDS011;50075;49.484;11.238;2022-08-05T01:14:13;40.58;;;8.15;;
63906;SDS011;50075;49.484;11.238;2022-08-05T01:19:29;40.30;;;8.23;;
63906;SDS011;50075;49.484;11.238;2022-08-05T01:28:17;37.47;;;8.00;;
63906;SDS011;50075;49.484;11.238;2022-08-05T01:31:09;36.00;;;7.43;;
63906;SDS011;50075;49.484;11.238;2022-08-05T01:33:44;30.20;;;7.22;;
63906;SDS011;50075;49.484;11.238;2022-08-05T01:36:12;37.90;;;7.50;;
63906;SDS011;50075;49.484;11.238;2022-08-05T01:38:40;27.95;;;6.63;;
63906;SDS011;50075;49.484;11.238;2022-08-05T01:41:07;29.23;;;7.03;;
63906;SDS011;50075;49.484;11.238;2022-08-05T01:43:35;29.63;;;7.22;;
63906;SDS011;50075;49.484;11.238;2022-08-05T01:46:01;32.90;;;7.60;;
63906;SDS011;50075;49.484;11.238;2022-08-05T01:48:27;39.75;;;7.85;;
63906;SDS011;50075;49.484;11.238;2022-08-05T01:50:56;34.15;;;7.28;;
63906;SDS011;50075;49.484;11.238;2022-08-05T01:53:21;39.67;;;8.00;;
63906;SDS011;50075;49.484;11.238;2022-08-05T01:55:49;30.23;;;7.18;;
63906;SDS011;50075;49.484;11.238;2022-08-05T01:58:19;36.35;;;8.07;;
63906;SDS011;50075;49.484;11.238;2022-08-05T02:00:49;32.08;;;7.45;;
63906;SDS011;50075;49.484;11.238;2022-08-05T02:03:17;37.72;;;7.97;;
63906;SDS011;50075;49.484;11.238;2022-08-05T02:05:45;32.78;;;7.90;;
63906;SDS011;50075;49.484;11.238;2022-08-05T02:08:12;27.10;;;6.70;;
63906;SDS011;50075;49.484;11.238;2022-08-05T02:10:39;34.85;;;7.30;;
63906;SDS011;50075;49.484;11.238;2022-08-05T02:13:09;33.33;;;7.50;;
63906;SDS011;50075;49.484;11.238;2022-08-05T02:15:46;36.38;;;8.18;;
63906;SDS011;50075;49.484;11.238;2022-08-05T02:18:24;33.58;;;7.63;;
63906;SDS011;50075;49.484;11.238;2022-08-05T02:21:02;35.85;;;7.00;;
63906;SDS011;50075;49.484;11.238;2022-08-05T02:23:34;36.78;;;8.07;;
63906;SDS011;50075;49.484;11.238;2022-08-05T02:26:05;30.65;;;6.97;;
63906;SDS011;50075;49.484;11.238;2022-08-05T02:28:33;35.45;;;7.28;;
63906;SDS011;50075;49.484;11.238;2022-08-05T02:31:08;31.80;;;7.15;;
63906;SDS011;50075;49.484;11.238;2022-08-05T02:36:09;29.35;;;7.47;;
63906;SDS011;50075;49.484;11.238;2022-08-05T02:38:36;34.65;;;7.60;;
63906;SDS011;50075;49.484;11.238;2022-08-05T02:41:03;29.30;;;7.22;;
63906;SDS011;50075;49.484;11.238;2022-08-05T02:43:32;30.80;;;7.13;;
63906;SDS011;50075;49.484;11.238;2022-08-05T02:45:57;35.20;;;8.18;;
63906;SDS011;50075;49.484;11.238;2022-08-05T02:48:25;31.23;;;7.38;;
63906;SDS011;50075;49.484;11.238;2022-08-05T02:50:51;29.27;;;7.32;;
63906;SDS011;50075;49.484;11.238;2022-08-05T02:53:18;65.80;;;10.80;;
63906;SDS011;50075;49.484;11.238;2022-08-05T02:55:46;33.47;;;7.57;;
63906;SDS011;50075;49.484;11.238;2022-08-05T02:58:13;35.35;;;7.60;;
63906;SDS011;50075;49.484;11.238;2022-08-05T03:00:40;36.28;;;7.85;;
63906;SDS011;50075;49.484;11.238;2022-08-05T03:03:08;44.58;;;7.85;;
63906;SDS011;50075;49.484;11.238;2022-08-05T03:05:35;36.35;;;8.32;;
63906;SDS011;50075;49.484;11.238;2022-08-05T03:08:03;40.92;;;7.53;;
63906;SDS011;50075;49.484;11.238;2022-08-05T03:10:29;32.17;;;7.68;;
63906;SDS011;50075;49.484;11.238;2022-08-05T03:12:55;36.72;;;7.85;;
63906;SDS011;50075;49.484;11.238;2022-08-05T03:15:20;35.85;;;7.55;;
63906;SDS011;50075;49.484;11.238;2022-08-05T03:17:47;35.85;;;7.68;;
63906;SDS011;50075;49.484;11.238;2022-08-05T03:20:12;48.05;;;8.63;;
63906;SDS011;50075;49.484;11.238;2022-08-05T03:22:37;44.03;;;8.05;;
63906;SDS011;50075;49.484;11.238;2022-08-05T03:25:03;29.83;;;7.25;;
63906;SDS011;50075;49.484;11.238;2022-08-05T03:27:29;36.47;;;8.07;;
63906;SDS011;50075;49.484;11.238;2022-08-05T03:29:56;35.63;;;7.88;;
63906;SDS011;50075;49.484;11.238;2022-08-05T03:32:22;37.22;;;7.97;;
63906;SDS011;50075;49.484;11.238;2022-08-05T03:34:48;33.80;;;7.30;;
63906;SDS011;50075;49.484;11.238;2022-08-05T03:37:14;35.40;;;7.97;;
63906;SDS011;50075;49.484;11.238;2022-08-05T03:39:50;27.35;;;7.10;;
63906;SDS011;50075;49.484;11.238;2022-08-05T03:42:18;31.48;;;7.15;;
63906;SDS011;50075;49.484;11.238;2022-08-05T03:44:43;34.97;;;8.00;;
63906;SDS011;50075;49.484;11.238;2022-08-05T03:47:09;30.02;;;6.93;;
63906;SDS011;50075;49.484;11.238;2022-08-05T03:49:34;34.72;;;7.65;;
63906;SDS011;50075;49.484;11.238;2022-08-05T03:52:00;28.20;;;6.25;;
63906;SDS011;50075;49.484;11.238;2022-08-05T03:54:34;33.15;;;7.35;;
63906;SDS011;50075;49.484;11.238;2022-08-05T03:57:08;30.17;;;7.22;;
63906;SDS011;50075;49.484;11.238;2022-08-05T03:59:39;34.83;;;7.15;;
63906;SDS011;50075;49.484;11.238;2022-08-05T04:02:07;29.13;;;6.88;;
63906;SDS011;50075;49.484;11.238;2022-08-05T04:04:35;28.40;;;7.40;;
63906;SDS011;50075;49.484;11.238;2022-08-05T04:07:01;29.27;;;7.32;;
63906;SDS011;50075;49.484;11.238;2022-08-05T04:09:28;34.63;;;7.50;;
63906;SDS011;50075;49.484;11.238;2022-08-05T04:11:54;30.92;;;7.15;;
63906;SDS011;50075;49.484;11.238;2022-08-05T04:14:20;32.67;;;7.10;;
63906;SDS011;50075;49.484;11.238;2022-08-05T04:16:46;41.55;;;7.90;;
63906;SDS011;50075;49.484;11.238;2022-08-05T04:19:12;29.60;;;6.55;;
63906;SDS011;50075;49.484;11.238;2022-08-05T04:21:38;30.27;;;7.65;;
63906;SDS011;50075;49.484;11.238;2022-08-05T04:24:04;24.58;;;6.13;;
63906;SDS011;50075;49.484;11.238;2022-08-05T04:26:30;30.80;;;7.13;;
63906;SDS011;50075;49.484;11.238;2022-08-05T04:28:55;46.88;;;8.05;;
63906;SDS011;50075;49.484;11.238;2022-08-05T04:31:20;27.92;;;6.68;;
63906;SDS011;50075;49.484;11.238;2022-08-05T04:33:46;33.03;;;7.95;;
63906;SDS011;50075;49.484;11.238;2022-08-05T04:36:11;29.40;;;6.68;;
63906;SDS011;50075;49.484;11.238;2022-08-05T04:38:39;28.58;;;6.80;;
63906;SDS011;50075;49.484;11.238;2022-08-05T04:41:04;37.55;;;7.10;;
63906;SDS011;50075;49.484;11.238;2022-08-05T04:43:29;30.98;;;7.10;;
63906;SDS011;50075;49.484;11.238;2022-08-05T04:45:55;26.63;;;6.57;;
63906;SDS011;50075;49.484;11.238;2022-08-05T04:48:20;28.73;;;6.88;;
63906;SDS011;50075;49.484;11.238;2022-08-05T04:50:47;31.48;;;7.28;;
63906;SDS011;50075;49.484;11.238;2022-08-05T04:53:13;34.45;;;6.93;;
63906;SDS011;50075;49.484;11.238;2022-08-05T04:55:42;28.90;;;6.85;;
63906;SDS011;50075;49.484;11.238;2022-08-05T04:58:09;34.92;;;7.50;;
63906;SDS011;50075;49.484;11.238;2022-08-05T05:00:36;27.02;;;6.80;;
63906;SDS011;50075;49.484;11.238;2022-08-05T05:03:03;31.98;;;7.47;;
63906;SDS011;50075;49.484;11.238;2022-08-05T05:05:29;34.75;;;7.60;;
63906;SDS011;50075;49.484;11.238;2022-08-05T05:07:58;28.20;;;7.05;;
63906;SDS011;50075;49.484;11.238;2022-08-05T05:10:25;36.42;;;7.82;;
63906;SDS011;50075;49.484;11.238;2022-08-05T05:12:50;26.27;;;6.78;;
63906;SDS011;50075;49.484;11.238;2022-08-05T05:15:16;30.27;;;7.25;;
63906;SDS011;50075;49.484;11.238;2022-08-05T05:17:42;30.70;;;6.80;;
63906;SDS011;50075;49.484;11.238;2022-08-05T05:20:08;38.47;;;8.18;;
63906;SDS011;50075;49.484;11.238;2022-08-05T05:22:35;37.10;;;7.63;;
63906;SDS011;50075;49.484;11.238;2022-08-05T05:25:01;30.88;;;6.93;;
63906;SDS011;50075;49.484;11.238;2022-08-05T05:27:27;33.95;;;7.13;;
63906;SDS011;50075;49.484;11.238;2022-08-05T05:29:56;33.33;;;7.38;;
63906;SDS011;50075;49.484;11.238;2022-08-05T05:32:21;28.50;;;7.05;;
63906;SDS011;50075;49.484;11.238;2022-08-05T05:34:47;27.63;;;6.60;;
63906;SDS011;50075;49.484;11.238;2022-08-05T05:37:12;29.80;;;7.00;;
63906;SDS011;50075;49.484;11.238;2022-08-05T05:39:38;33.38;;;7.70;;
63906;SDS011;50075;49.484;11.238;2022-08-05T05:42:04;31.52;;;7.03;;
63906;SDS011;50075;49.484;11.238;2022-08-05T05:44:30;31.88;;;7.18;;
63906;SDS011;50075;49.484;11.238;2022-08-05T05:46:55;28.92;;;6.97;;
63906;SDS011;50075;49.484;11.238;2022-08-05T05:49:20;30.20;;;6.82;;
63906;SDS011;50075;49.484;11.238;2022-08-05T05:51:46;35.75;;;7.55;;
63906;SDS011;50075;49.484;11.238;2022-08-05T05:54:11;34.08;;;7.28;;
63906;SDS011;50075;49.484;11.238;2022-08-05T05:56:36;29.88;;;6.85;;
63906;SDS011;50075;49.484;11.238;2022-08-05T05:59:02;32.80;;;7.25;;
63906;SDS011;50075;49.484;11.238;2022-08-05T06:01:29;27.30;;;6.70;;
63906;SDS011;50075;49.484;11.238;2022-08-05T06:03:55;34.97;;;7.38;;
63906;SDS011;50075;49.484;11.238;2022-08-05T06:06:20;30.25;;;6.70;;
63906;SDS011;50075;49.484;11.238;2022-08-05T06:08:46;24.50;;;5.55;;
63906;SDS011;50075;49.484;11.238;2022-08-05T06:11:11;27.20;;;5.93;;
63906;SDS011;50075;49.484;11.238;2022-08-05T06:13:36;26.35;;;5.95;;
63906;SDS011;50075;49.484;11.238;2022-08-05T06:16:02;29.92;;;6.40;;
63906;SDS011;50075;49.484;11.238;2022-08-05T06:18:27;19.05;;;5.30;;
63906;SDS011;50075;49.484;11.238;2022-08-05T06:20:53;31.83;;;5.78;;
63906;SDS011;50075;49.484;11.238;2022-08-05T06:23:18;20.98;;;5.80;;
63906;SDS011;50075;49.484;11.238;2022-08-05T06:25:43;17.55;;;5.20;;
63906;SDS011;50075;49.484;11.238;2022-08-05T06:28:09;23.88;;;5.85;;
63906;SDS011;50075;49.484;11.238;2022-08-05T06:30:34;24.25;;;5.72;;
63906;SDS011;50075;49.484;11.238;2022-08-05T06:32:59;24.23;;;5.72;;
63906;SDS011;50075;49.484;11.238;2022-08-05T06:35:25;30.15;;;6.43;;
63906;SDS011;50075;49.484;11.238;2022-08-05T06:37:50;28.60;;;6.22;;
63906;SDS011;50075;49.484;11.238;2022-08-05T06:40:15;22.85;;;6.13;;
63906;SDS011;50075;49.484;11.238;2022-08-05T06:42:41;23.52;;;5.88;;
63906;SDS011;50075;49.484;11.238;2022-08-05T06:45:06;27.15;;;6.68;;
63906;SDS011;50075;49.484;11.238;2022-08-05T06:47:32;25.75;;;6.25;;
63906;SDS011;50075;49.484;11.238;2022-08-05T06:49:57;31.13;;;6.63;;
63906;SDS011;50075;49.484;11.238;2022-08-05T06:52:23;28.77;;;6.35;;
63906;SDS011;50075;49.484;11.238;2022-08-05T06:54:48;28.63;;;5.68;;
63906;SDS011;50075;49.484;11.238;2022-08-05T06:57:13;29.23;;;6.53;;
63906;SDS011;50075;49.484;11.238;2022-08-05T06:59:40;27.98;;;6.18;;
63906;SDS011;50075;49.484;11.238;2022-08-05T07:02:06;22.83;;;5.68;;
63906;SDS011;50075;49.484;11.238;2022-08-05T07:04:31;18.70;;;4.93;;
63906;SDS011;50075;49.484;11.238;2022-08-05T07:06:57;19.65;;;4.95;;
63906;SDS011;50075;49.484;11.238;2022-08-05T07:09:22;19.85;;;5.15;;
63906;SDS011;50075;49.484;11.238;2022-08-05T07:11:47;22.60;;;5.28;;
63906;SDS011;50075;49.484;11.238;2022-08-05T07:14:13;22.00;;;4.82;;
63906;SDS011;50075;49.484;11.238;2022-08-05T07:16:57;22.20;;;4.95;;
63906;SDS011;50075;49.484;11.238;2022-08-05T07:19:24;18.60;;;4.82;;
63906;SDS011;50075;49.484;11.238;2022-08-05T07:21:52;18.55;;;4.78;;
63906;SDS011;50075;49.484;11.238;2022-08-05T07:24:19;22.27;;;4.70;;
63906;SDS011;50075;49.484;11.238;2022-08-05T07:26:44;23.48;;;4.97;;
63906;SDS011;50075;49.484;11.238;2022-08-05T07:29:10;21.17;;;4.75;;
63906;SDS011;50075;49.484;11.238;2022-08-05T07:31:36;22.42;;;4.70;;
63906;SDS011;50075;49.484;11.238;2022-08-05T07:34:01;25.60;;;4.93;;
63906;SDS011;50075;49.484;11.238;2022-08-05T07:36:27;15.32;;;4.25;;
63906;SDS011;50075;49.484;11.238;2022-08-05T07:38:53;18.48;;;4.57;;
63906;SDS011;50075;49.484;11.238;2022-08-05T07:41:20;16.95;;;4.03;;
63906;SDS011;50075;49.484;11.238;2022-08-05T07:43:46;20.33;;;4.55;;
63906;SDS011;50075;49.484;11.238;2022-08-05T07:46:12;23.23;;;5.00;;
63906;SDS011;50075;49.484;11.238;2022-08-05T07:48:37;18.23;;;4.43;;
63906;SDS011;50075;49.484;11.238;2022-08-05T07:51:03;17.35;;;4.10;;
63906;SDS011;50075;49.484;11.238;2022-08-05T07:53:28;15.98;;;4.30;;
63906;SDS011;50075;49.484;11.238;2022-08-05T07:55:53;14.05;;;4.05;;
63906;SDS011;50075;49.484;11.238;2022-08-05T07:58:19;16.25;;;4.40;;
63906;SDS011;50075;49.484;11.238;2022-08-05T08:00:44;15.38;;;4.18;;
63906;SDS011;50075;49.484;11.238;2022-08-05T08:03:11;15.23;;;4.07;;
63906;SDS011;50075;49.484;11.238;2022-08-05T08:05:37;18.55;;;3.80;;
63906;SDS011;50075;49.484;11.238;2022-08-05T08:08:07;14.70;;;3.87;;
63906;SDS011;50075;49.484;11.238;2022-08-05T08:10:36;16.35;;;4.03;;
63906;SDS011;50075;49.484;11.238;2022-08-05T08:13:01;15.98;;;4.05;;
63906;SDS011;50075;49.484;11.238;2022-08-05T08:15:27;17.05;;;4.18;;
63906;SDS011;50075;49.484;11.238;2022-08-05T08:17:52;13.20;;;3.80;;
63906;SDS011;50075;49.484;11.238;2022-08-05T08:20:18;14.77;;;3.80;;
63906;SDS011;50075;49.484;11.238;2022-08-05T08:22:52;12.93;;;3.67;;
63906;SDS011;50075;49.484;11.238;2022-08-05T08:25:19;20.13;;;4.32;;
63906;SDS011;50075;49.484;11.238;2022-08-05T08:27:44;12.88;;;3.42;;
63906;SDS011;50075;49.484;11.238;2022-08-05T08:30:10;14.13;;;3.90;;
63906;SDS011;50075;49.484;11.238;2022-08-05T08:32:36;13.43;;;3.58;;
63906;SDS011;50075;49.484;11.238;2022-08-05T08:35:02;17.90;;;3.60;;
63906;SDS011;50075;49.484;11.238;2022-08-05T08:37:28;16.58;;;4.25;;
63906;SDS011;50075;49.484;11.238;2022-08-05T08:39:53;19.70;;;4.78;;
63906;SDS011;50075;49.484;11.238;2022-08-05T08:42:18;12.32;;;3.63;;
63906;SDS011;50075;49.484;11.238;2022-08-05T08:44:45;14.43;;;3.70;;
63906;SDS011;50075;49.484;11.238;2022-08-05T08:47:11;16.38;;;3.50;;
63906;SDS011;50075;49.484;11.238;2022-08-05T08:49:38;12.38;;;3.40;;
63906;SDS011;50075;49.484;11.238;2022-08-05T08:52:12;15.20;;;4.07;;
63906;SDS011;50075;49.484;11.238;2022-08-05T08:54:43;15.80;;;3.83;;
63906;SDS011;50075;49.484;11.238;2022-08-05T08:57:11;17.33;;;4.00;;
63906;SDS011;50075;49.484;11.238;2022-08-05T08:59:37;11.00;;;3.60;;
63906;SDS011;50075;49.484;11.238;2022-08-05T09:02:04;16.63;;;3.80;;
63906;SDS011;50075;49.484;11.238;2022-08-05T09:04:32;11.35;;;3.03;;
63906;SDS011;50075;49.484;11.238;2022-08-05T09:09:27;12.57;;;3.00;;
63906;SDS011;50075;49.484;11.238;2022-08-05T09:11:52;9.15;;;2.95;;
63906;SDS011;50075;49.484;11.238;2022-08-05T09:14:18;10.48;;;3.30;;
63906;SDS011;50075;49.484;11.238;2022-08-05T09:16:43;9.45;;;2.88;;
63906;SDS011;50075;49.484;11.238;2022-08-05T09:19:09;14.75;;;3.60;;
63906;SDS011;50075;49.484;11.238;2022-08-05T09:21:35;12.02;;;3.65;;
63906;SDS011;50075;49.484;11.238;2022-08-05T09:24:01;14.10;;;3.40;;
63906;SDS011;50075;49.484;11.238;2022-08-05T09:26:28;10.27;;;3.13;;
63906;SDS011;50075;49.484;11.238;2022-08-05T09:28:54;14.60;;;3.47;;
63906;SDS011;50075;49.484;11.238;2022-08-05T09:31:24;32.97;;;4.73;;
63906;SDS011;50075;49.484;11.238;2022-08-05T09:36:16;16.55;;;3.50;;
63906;SDS011;50075;49.484;11.238;2022-08-05T09:38:59;10.48;;;3.40;;
63906;SDS011;50075;49.484;11.238;2022-08-05T09:41:24;11.55;;;3.30;;
63906;SDS011;50075;49.484;11.238;2022-08-05T09:43:50;13.25;;;3.53;;
63906;SDS011;50075;49.484;11.238;2022-08-05T09:46:29;15.73;;;3.83;;
63906;SDS011;50075;49.484;11.238;2022-08-05T09:48:56;11.32;;;3.20;;
63906;SDS011;50075;49.484;11.238;2022-08-05T09:51:36;14.82;;;3.55;;
63906;SDS011;50075;49.484;11.238;2022-08-05T09:54:03;14.93;;;3.05;;
63906;SDS011;50075;49.484;11.238;2022-08-05T09:56:33;16.63;;;3.65;;
63906;SDS011;50075;49.484;11.238;2022-08-05T09:59:05;13.63;;;3.13;;
63906;SDS011;50075;49.484;11.238;2022-08-05T10:01:32;13.88;;;3.35;;
63906;SDS011;50075;49.484;11.238;2022-08-05T10:06:56;15.10;;;3.45;;
63906;SDS011;50075;49.484;11.238;2022-08-05T10:09:22;14.27;;;3.17;;
63906;SDS011;50075;49.484;11.238;2022-08-05T10:11:48;13.73;;;3.15;;
63906;SDS011;50075;49.484;11.238;2022-08-05T10:14:28;14.90;;;3.00;;
63906;SDS011;50075;49.484;11.238;2022-08-05T10:16:55;13.32;;;3.03;;
63906;SDS011;50075;49.484;11.238;2022-08-05T10:19:35;18.60;;;3.60;;
63906;SDS011;50075;49.484;11.238;2022-08-05T10:22:01;13.80;;;2.85;;
63906;SDS011;50075;49.484;11.238;2022-08-05T10:24:26;12.23;;;3.10;;
63906;SDS011;50075;49.484;11.238;2022-08-05T10:26:52;12.98;;;3.13;;
63906;SDS011;50075;49.484;11.238;2022-08-05T10:29:20;10.10;;;2.47;;
63906;SDS011;50075;49.484;11.238;2022-08-05T10:31:46;15.43;;;3.33;;
63906;SDS011;50075;49.484;11.238;2022-08-05T10:34:11;11.38;;;2.70;;
63906;SDS011;50075;49.484;11.238;2022-08-05T10:36:38;10.77;;;2.67;;
63906;SDS011;50075;49.484;11.238;2022-08-05T10:39:27;9.73;;;2.55;;
63906;SDS011;50075;49.484;11.238;2022-08-05T10:42:03;22.45;;;3.80;;
63906;SDS011;50075;49.484;11.238;2022-08-05T10:44:35;13.60;;;3.00;;
63906;SDS011;50075;49.484;11.238;2022-08-05T10:47:12;17.40;;;3.45;;
63906;SDS011;50075;49.484;11.238;2022-08-05T10:55:09;16.25;;;3.13;;
63906;SDS011;50075;49.484;11.238;2022-08-05T10:57:37;12.13;;;3.08;;
63906;SDS011;50075;49.484;11.238;2022-08-05T11:05:23;17.70;;;3.50;;
63906;SDS011;50075;49.484;11.238;2022-08-05T11:08:03;13.75;;;2.90;;
63906;SDS011;50075;49.484;11.238;2022-08-05T11:10:31;14.10;;;3.00;;
63906;SDS011;50075;49.484;11.238;2022-08-05T11:12:57;15.90;;;3.10;;
63906;SDS011;50075;49.484;11.238;2022-08-05T11:15:33;14.82;;;2.90;;
63906;SDS011;50075;49.484;11.238;2022-08-05T11:20:33;16.35;;;3.47;;
63906;SDS011;50075;49.484;11.238;2022-08-05T11:22:58;10.98;;;2.72;;
63906;SDS011;50075;49.484;11.238;2022-08-05T11:25:37;18.75;;;3.53;;
63906;SDS011;50075;49.484;11.238;2022-08-05T11:35:58;14.70;;;3.20;;
63906;SDS011;50075;49.484;11.238;2022-08-05T11:49:01;17.88;;;3.20;;
63906;SDS011;50075;49.484;11.238;2022-08-05T11:51:28;18.85;;;3.40;;
63906;SDS011;50075;49.484;11.238;2022-08-05T11:53:54;14.27;;;2.90;;
63906;SDS011;50075;49.484;11.238;2022-08-05T11:56:21;18.48;;;3.10;;
63906;SDS011;50075;49.484;11.238;2022-08-05T11:58:48;42.50;;;6.38;;
63906;SDS011;50075;49.484;11.238;2022-08-05T12:01:15;32.13;;;4.85;;
63906;SDS011;50075;49.484;11.238;2022-08-05T12:06:08;36.90;;;5.10;;
63906;SDS011;50075;49.484;11.238;2022-08-05T12:08:38;28.13;;;4.68;;
63906;SDS011;50075;49.484;11.238;2022-08-05T12:11:05;25.20;;;4.05;;
63906;SDS011;50075;49.484;11.238;2022-08-05T12:13:32;18.25;;;3.45;;
63906;SDS011;50075;49.484;11.238;2022-08-05T12:15:59;24.30;;;3.92;;
63906;SDS011;50075;49.484;11.238;2022-08-05T12:18:30;19.92;;;3.63;;
63906;SDS011;50075;49.484;11.238;2022-08-05T12:21:17;20.20;;;3.55;;
63906;SDS011;50075;49.484;11.238;2022-08-05T12:23:52;25.80;;;4.03;;
63906;SDS011;50075;49.484;11.238;2022-08-05T12:26:17;18.92;;;3.35;;
63906;SDS011;50075;49.484;11.238;2022-08-05T12:28:43;24.73;;;4.28;;
63906;SDS011;50075;49.484;11.238;2022-08-05T12:31:08;21.05;;;3.88;;
63906;SDS011;50075;49.484;11.238;2022-08-05T12:33:34;18.95;;;3.40;;
63906;SDS011;50075;49.484;11.238;2022-08-05T12:36:00;22.83;;;4.22;;
63906;SDS011;50075;49.484;11.238;2022-08-05T12:38:26;15.30;;;3.20;;
63906;SDS011;50075;49.484;11.238;2022-08-05T12:40:52;24.10;;;3.97;;
63906;SDS011;50075;49.484;11.238;2022-08-05T12:43:20;20.30;;;3.58;;
63906;SDS011;50075;49.484;11.238;2022-08-05T12:45:52;20.10;;;3.63;;
63906;SDS011;50075;49.484;11.238;2022-08-05T12:48:18;28.27;;;4.50;;
63906;SDS011;50075;49.484;11.238;2022-08-05T12:51:07;22.77;;;4.22;;
63906;SDS011;50075;49.484;11.238;2022-08-05T12:53:41;24.30;;;4.30;;
63906;SDS011;50075;49.484;11.238;2022-08-05T12:56:22;29.63;;;4.68;;
63906;SDS011;50075;49.484;11.238;2022-08-05T13:01:37;22.27;;;3.70;;
63906;SDS011;50075;49.484;11.238;2022-08-05T13:04:03;23.52;;;3.92;;
63906;SDS011;50075;49.484;11.238;2022-08-05T13:06:29;21.15;;;4.05;;
63906;SDS011;50075;49.484;11.238;2022-08-05T13:08:54;26.63;;;4.43;;
63906;SDS011;50075;49.484;11.238;2022-08-05T13:11:21;25.23;;;4.05;;
63906;SDS011;50075;49.484;11.238;2022-08-05T13:13:51;22.02;;;3.70;;
63906;SDS011;50075;49.484;11.238;2022-08-05T13:16:18;24.00;;;3.90;;
63906;SDS011;50075;49.484;11.238;2022-08-05T13:18:50;17.95;;;3.45;;
63906;SDS011;50075;49.484;11.238;2022-08-05T13:21:17;29.65;;;4.47;;
63906;SDS011;50075;49.484;11.238;2022-08-05T13:23:42;27.55;;;4.18;;
63906;SDS011;50075;49.484;11.238;2022-08-05T13:26:07;24.60;;;4.22;;
63906;SDS011;50075;49.484;11.238;2022-08-05T13:28:33;34.50;;;5.07;;
63906;SDS011;50075;49.484;11.238;2022-08-05T13:30:58;34.08;;;4.93;;
63906;SDS011;50075;49.484;11.238;2022-08-05T13:33:24;30.17;;;4.68;;
63906;SDS011;50075;49.484;11.238;2022-08-05T13:35:49;25.45;;;4.22;;
63906;SDS011;50075;49.484;11.238;2022-08-05T13:38:15;33.50;;;4.45;;
63906;SDS011;50075;49.484;11.238;2022-08-05T13:40:40;31.95;;;4.78;;
63906;SDS011;50075;49.484;11.238;2022-08-05T13:43:06;27.10;;;4.38;;
63906;SDS011;50075;49.484;11.238;2022-08-05T13:45:31;34.13;;;5.35;;
63906;SDS011;50075;49.484;11.238;2022-08-05T13:47:57;29.25;;;4.72;;
63906;SDS011;50075;49.484;11.238;2022-08-05T13:50:22;28.80;;;4.53;;
63906;SDS011;50075;49.484;11.238;2022-08-05T13:52:48;25.30;;;4.20;;
63906;SDS011;50075;49.484;11.238;2022-08-05T13:55:13;32.33;;;4.95;;
63906;SDS011;50075;49.484;11.238;2022-08-05T13:57:38;43.53;;;5.28;;
63906;SDS011;50075;49.484;11.238;2022-08-05T14:00:04;33.85;;;5.30;;
63906;SDS011;50075;49.484;11.238;2022-08-05T14:02:30;27.05;;;4.30;;
63906;SDS011;50075;49.484;11.238;2022-08-05T14:04:55;30.48;;;4.70;;
63906;SDS011;50075;49.484;11.238;2022-08-05T14:07:41;29.35;;;4.60;;
63906;SDS011;50075;49.484;11.238;2022-08-05T14:10:12;27.35;;;4.82;;
63906;SDS011;50075;49.484;11.238;2022-08-05T14:15:05;31.27;;;5.03;;
63906;SDS011;50075;49.484;11.238;2022-08-05T14:17:31;19.63;;;3.65;;
63906;SDS011;50075;49.484;11.238;2022-08-05T14:19:56;29.48;;;4.93;;
63906;SDS011;50075;49.484;11.238;2022-08-05T14:22:22;20.73;;;3.83;;
63906;SDS011;50075;49.484;11.238;2022-08-05T14:24:47;25.02;;;4.40;;
63906;SDS011;50075;49.484;11.238;2022-08-05T14:27:13;20.75;;;3.88;;
63906;SDS011;50075;49.484;11.238;2022-08-05T14:29:38;24.08;;;3.97;;
63906;SDS011;50075;49.484;11.238;2022-08-05T14:32:04;26.85;;;4.60;;
63906;SDS011;50075;49.484;11.238;2022-08-05T14:34:29;20.60;;;3.88;;
63906;SDS011;50075;49.484;11.238;2022-08-05T14:36:55;22.65;;;3.95;;
63906;SDS011;50075;49.484;11.238;2022-08-05T14:39:20;23.02;;;4.15;;
63906;SDS011;50075;49.484;11.238;2022-08-05T14:41:46;27.00;;;3.95;;
63906;SDS011;50075;49.484;11.238;2022-08-05T14:44:11;25.17;;;4.50;;
63906;SDS011;50075;49.484;11.238;2022-08-05T14:46:37;21.08;;;3.65;;
63906;SDS011;50075;49.484;11.238;2022-08-05T14:49:03;24.35;;;4.07;;
63906;SDS011;50075;49.484;11.238;2022-08-05T14:51:29;22.35;;;4.00;;
63906;SDS011;50075;49.484;11.238;2022-08-05T14:53:54;27.65;;;4.38;;
63906;SDS011;50075;49.484;11.238;2022-08-05T14:56:20;27.30;;;4.50;;
63906;SDS011;50075;49.484;11.238;2022-08-05T14:58:45;29.67;;;4.82;;
63906;SDS011;50075;49.484;11.238;2022-08-05T15:01:11;33.42;;;5.43;;
63906;SDS011;50075;49.484;11.238;2022-08-05T15:03:36;29.30;;;4.90;;
63906;SDS011;50075;49.484;11.238;2022-08-05T15:06:02;24.40;;;4.28;;
63906;SDS011;50075;49.484;11.238;2022-08-05T15:08:28;32.72;;;5.13;;
63906;SDS011;50075;49.484;11.238;2022-08-05T15:10:54;35.80;;;5.57;;
63906;SDS011;50075;49.484;11.238;2022-08-05T15:13:19;32.80;;;5.20;;
63906;SDS011;50075;49.484;11.238;2022-08-05T15:15:45;34.10;;;5.45;;
63906;SDS011;50075;49.484;11.238;2022-08-05T15:18:10;26.73;;;4.68;;
63906;SDS011;50075;49.484;11.238;2022-08-05T15:20:36;28.10;;;4.60;;